createdAt,value
2019-05-03T00:00:22.305Z,15.30
2019-05-03T00:03:01.694Z,15.00
2019-05-03T00:05:45.240Z,15.10
2019-05-03T00:08:13.313Z,14.90
2019-05-03T00:10:42.507Z,14.60
2019-05-03T00:13:32.510Z,14.40
2019-05-03T00:16:13.492Z,15.00
2019-05-03T00:18:42.197Z,14.90
2019-05-03T00:21:11.686Z,15.20
2019-05-03T00:23:41.629Z,15.20
2019-05-03T00:26:09.545Z,15.20
2019-05-03T00:28:37.516Z,15.30
2019-05-03T00:31:05.412Z,15.10
2019-05-03T00:33:34.707Z,15.00
2019-05-03T00:36:32.805Z,15.30
2019-05-03T00:39:14.347Z,15.30
2019-05-03T00:41:42.600Z,15.20
2019-05-03T00:44:11.574Z,15.30
2019-05-03T00:46:39.449Z,15.10
2019-05-03T00:49:07.379Z,14.90
2019-05-03T00:51:35.274Z,15.20
2019-05-03T00:54:03.293Z,15.00
2019-05-03T00:56:32.132Z,15.10
2019-05-03T00:59:02.024Z,14.90
2019-05-03T01:01:31.940Z,15.20
2019-05-03T01:04:01.670Z,14.60
2019-05-03T01:06:31.694Z,14.90
2019-05-03T01:08:59.624Z,14.60
2019-05-03T01:11:27.481Z,14.90
2019-05-03T01:13:55.405Z,14.70
2019-05-03T01:16:24.658Z,14.60
2019-05-03T01:18:52.599Z,14.40
2019-05-03T01:21:22.640Z,14.60
2019-05-03T01:23:52.291Z,14.60
2019-05-03T01:26:22.463Z,14.70
2019-05-03T01:28:52.126Z,14.60
2019-05-03T01:31:20.160Z,14.40
2019-05-03T01:33:48.049Z,14.50
2019-05-03T01:36:15.905Z,14.30
2019-05-03T01:38:43.835Z,14.50
2019-05-03T01:41:12.307Z,14.10
2019-05-03T01:43:41.790Z,13.60
2019-05-03T01:46:11.873Z,13.90
2019-05-03T01:48:52.812Z,13.40
2019-05-03T01:51:38.652Z,13.20
2019-05-03T01:54:06.650Z,13.40
2019-05-03T01:56:34.618Z,13.50
2019-05-03T01:59:02.550Z,13.60
2019-05-03T02:01:37.371Z,13.20
2019-05-03T02:04:23.574Z,13.10
2019-05-03T02:06:51.949Z,12.90
2019-05-03T02:09:21.557Z,12.50
2019-05-03T02:11:49.661Z,12.60
2019-05-03T02:14:17.588Z,12.90
2019-05-03T02:16:45.474Z,13.00
2019-05-03T02:19:13.410Z,12.20
2019-05-03T02:21:41.698Z,12.50
2019-05-03T02:24:11.647Z,12.60
2019-05-03T02:26:39.474Z,13.00
2019-05-03T02:29:07.452Z,12.60
2019-05-03T02:31:35.390Z,12.40
2019-05-03T02:34:03.724Z,13.20
2019-05-03T02:36:33.769Z,13.20
2019-05-03T02:39:02.889Z,12.90
2019-05-03T02:41:32.478Z,12.70
2019-05-03T02:44:00.484Z,12.70
2019-05-03T02:47:06.340Z,12.60
2019-05-03T02:49:56.223Z,13.20
2019-05-03T02:52:37.528Z,12.20
2019-05-03T02:55:09.733Z,12.60
2019-05-03T02:57:37.644Z,12.70
2019-05-03T03:00:09.550Z,12.50
2019-05-03T03:02:38.588Z,12.70
2019-05-03T03:05:08.300Z,12.40
2019-05-03T03:07:37.685Z,12.10
2019-05-03T03:10:06.708Z,12.50
2019-05-03T03:12:35.827Z,12.50
2019-05-03T03:15:06.256Z,12.80
2019-05-03T03:17:36.450Z,11.80
2019-05-03T03:20:06.399Z,12.30
2019-05-03T03:22:40.984Z,11.90
2019-05-03T03:25:17.546Z,12.10
2019-05-03T03:27:49.119Z,12.40
2019-05-03T03:30:48.812Z,12.20
2019-05-03T03:33:17.716Z,12.40
2019-05-03T03:35:49.218Z,12.20
2019-05-03T03:38:17.441Z,12.10
2019-05-03T03:40:46.420Z,11.90
2019-05-03T03:43:15.709Z,11.80
2019-05-03T03:45:45.464Z,11.70
2019-05-03T03:48:18.341Z,11.50
2019-05-03T03:50:49.825Z,11.50
2019-05-03T03:53:19.582Z,11.50
2019-05-03T03:55:47.572Z,11.70
2019-05-03T03:58:22.552Z,11.70
2019-05-03T04:00:46.481Z,11.70
2019-05-03T04:03:15.858Z,11.90
2019-05-03T04:05:46.727Z,11.90
2019-05-03T04:08:16.114Z,11.90
2019-05-03T04:10:46.390Z,11.90
2019-05-03T04:13:16.026Z,12.10
2019-05-03T04:15:57.512Z,12.10
2019-05-03T04:18:51.991Z,11.90
2019-05-03T04:21:19.967Z,11.80
2019-05-03T04:23:48.876Z,11.80
2019-05-03T04:26:16.757Z,11.40
2019-05-03T04:28:45.435Z,11.80
2019-05-03T04:31:15.254Z,11.70
2019-05-03T04:33:45.177Z,12.00
2019-05-03T04:36:15.952Z,12.30
2019-05-03T04:38:45.314Z,12.60
2019-05-03T04:41:15.906Z,12.60
2019-05-03T04:43:45.849Z,12.50
2019-05-03T04:46:22.112Z,13.00
2019-05-03T04:48:50.032Z,13.00
2019-05-03T04:51:17.983Z,13.10
2019-05-03T04:53:51.515Z,12.90
2019-05-03T04:56:19.446Z,13.00
2019-05-03T04:58:47.747Z,13.30
2019-05-03T05:01:15.982Z,13.00
2019-05-03T05:03:45.683Z,13.30
2019-05-03T05:06:15.394Z,13.30
2019-05-03T05:08:45.928Z,13.30
2019-05-03T05:11:15.826Z,13.20
2019-05-03T05:13:45.584Z,13.10
2019-05-03T05:16:15.836Z,13.40
2019-05-03T05:18:48.316Z,13.60
2019-05-03T05:21:32.897Z,13.50
2019-05-03T05:24:02.402Z,13.20
2019-05-03T05:26:49.905Z,13.30
2019-05-03T05:29:20.337Z,13.80
2019-05-03T05:31:48.265Z,13.80
2019-05-03T05:34:16.162Z,13.60
2019-05-03T05:36:45.082Z,14.20
2019-05-03T05:39:18.693Z,14.40
2019-05-03T05:41:46.173Z,14.30
2019-05-03T05:44:14.561Z,13.80
2019-05-03T05:46:59.798Z,13.50
2019-05-03T05:50:07.111Z,13.90
2019-05-03T05:52:35.403Z,14.30
2019-05-03T05:55:41.682Z,14.20
2019-05-03T05:58:15.736Z,14.40
2019-05-03T06:00:49.793Z,14.60
2019-05-03T06:03:17.990Z,14.50
2019-05-03T06:05:46.367Z,14.60
2019-05-03T06:08:35.994Z,14.60
2019-05-03T06:11:32.471Z,14.80
2019-05-03T06:14:06.198Z,14.90
2019-05-03T06:16:39.866Z,15.10
2019-05-03T06:19:15.154Z,14.60
2019-05-03T06:22:05.865Z,14.70
2019-05-03T06:24:38.793Z,14.70
2019-05-03T06:27:18.545Z,14.80
2019-05-03T06:29:48.364Z,14.50
2019-05-03T06:32:29.765Z,14.70
2019-05-03T06:34:57.728Z,15.30
2019-05-03T06:37:28.613Z,16.00
2019-05-03T06:39:56.560Z,15.00
2019-05-03T06:42:25.528Z,15.00
2019-05-03T06:44:54.629Z,15.50
2019-05-03T06:47:22.744Z,15.80
2019-05-03T06:49:50.743Z,16.00
2019-05-03T06:52:19.893Z,15.20
2019-05-03T06:54:48.973Z,15.00
2019-05-03T06:57:19.718Z,15.00
2019-05-03T07:00:10.093Z,15.00
2019-05-03T07:02:45.020Z,14.80
2019-05-03T07:05:25.628Z,14.60
2019-05-03T07:08:19.364Z,13.80
2019-05-03T07:10:50.486Z,14.20
2019-05-03T07:13:18.430Z,14.40
2019-05-03T07:15:46.422Z,14.00
2019-05-03T07:18:15.709Z,14.00
2019-05-03T07:20:54.952Z,14.50
2019-05-03T07:23:24.358Z,14.00
2019-05-03T07:25:52.392Z,14.30
2019-05-03T07:28:20.495Z,14.30
2019-05-03T07:30:48.492Z,14.20
2019-05-03T07:33:22.675Z,14.60
2019-05-03T07:35:50.671Z,13.80
2019-05-03T07:38:18.876Z,14.00
2019-05-03T07:40:46.835Z,13.30
2019-05-03T07:43:14.990Z,13.20
2019-05-03T07:45:44.670Z,13.20
2019-05-03T07:48:14.891Z,13.20
2019-05-03T07:50:44.597Z,12.90
2019-05-03T07:53:12.464Z,12.60
2019-05-03T07:55:58.487Z,12.70
2019-05-03T07:58:26.627Z,12.90
2019-05-03T08:01:06.200Z,12.60
2019-05-03T08:03:27.205Z,13.40
2019-05-03T08:05:55.416Z,13.00
2019-05-03T08:08:25.119Z,13.00
2019-05-03T08:10:55.013Z,12.70
2019-05-03T08:13:25.106Z,13.20
2019-05-03T08:15:53.008Z,13.20
2019-05-03T08:18:21.285Z,14.20
2019-05-03T08:20:49.212Z,14.10
2019-05-03T08:23:26.756Z,14.90
2019-05-03T08:25:47.083Z,15.20
2019-05-03T08:28:15.057Z,15.50
2019-05-03T08:31:01.567Z,15.30
2019-05-03T08:33:47.197Z,15.10
2019-05-03T08:36:15.732Z,15.50
2019-05-03T08:38:45.231Z,14.90
2019-05-03T08:41:16.612Z,14.00
2019-05-03T08:43:44.788Z,15.40
2019-05-03T08:46:14.856Z,15.10
2019-05-03T08:48:42.913Z,16.10
2019-05-03T08:51:10.937Z,16.10
2019-05-03T08:53:38.966Z,16.60
2019-05-03T08:56:06.929Z,15.80
2019-05-03T08:58:34.980Z,16.40
2019-05-03T09:01:05.709Z,16.30
2019-05-03T09:03:36.407Z,16.20
2019-05-03T09:06:04.648Z,16.40
2019-05-03T09:08:35.143Z,17.10
2019-05-03T09:11:10.301Z,16.70
2019-05-03T09:13:53.165Z,16.10
2019-05-03T09:16:25.033Z,16.70
2019-05-03T09:18:54.759Z,17.30
2019-05-03T09:21:22.958Z,16.20
2019-05-03T09:23:50.927Z,16.50
2019-05-03T09:26:18.866Z,16.00
2019-05-03T09:28:46.862Z,15.80
2019-05-03T09:31:15.566Z,15.80
2019-05-03T09:33:45.154Z,15.60
2019-05-03T09:36:14.756Z,15.90
2019-05-03T09:38:43.157Z,16.10
2019-05-03T09:41:11.139Z,16.90
2019-05-03T09:43:39.090Z,16.80
2019-05-03T09:46:07.089Z,17.00
2019-05-03T09:48:35.043Z,16.10
2019-05-03T09:51:05.043Z,16.80
2019-05-03T09:53:39.090Z,15.70
2019-05-03T09:56:08.220Z,16.40
2019-05-03T09:58:38.133Z,15.90
2019-05-03T10:01:12.065Z,15.20
2019-05-03T10:03:40.120Z,16.40
2019-05-03T10:06:08.084Z,15.70
2019-05-03T10:08:36.051Z,15.80
2019-05-03T10:11:10.121Z,15.90
2019-05-03T10:13:41.448Z,15.60
2019-05-03T10:16:08.052Z,15.60
2019-05-03T10:18:36.125Z,16.90
2019-05-03T10:21:05.304Z,14.90
2019-05-03T10:23:39.861Z,15.20
2019-05-03T10:26:09.069Z,15.30
2019-05-03T10:28:37.153Z,14.80
2019-05-03T10:31:07.706Z,15.50
2019-05-03T10:33:44.996Z,16.00
2019-05-03T10:36:15.193Z,15.70
2019-05-03T10:38:42.935Z,16.70
2019-05-03T10:41:10.891Z,16.30
2019-05-03T10:43:38.881Z,16.10
2019-05-03T10:46:06.862Z,15.40
2019-05-03T10:48:35.589Z,15.10
2019-05-03T10:51:04.693Z,16.30
2019-05-03T10:53:39.079Z,16.00
2019-05-03T10:56:26.727Z,15.80
2019-05-03T10:59:01.434Z,16.10
2019-05-03T11:01:47.324Z,16.70
2019-05-03T11:04:15.259Z,16.40
2019-05-03T11:06:45.512Z,17.20
2019-05-03T11:09:15.333Z,17.60
2019-05-03T11:11:45.191Z,16.70
2019-05-03T11:14:14.758Z,16.70
2019-05-03T11:16:42.826Z,16.70
2019-05-03T11:19:10.761Z,16.70
2019-05-03T11:21:38.667Z,16.40
2019-05-03T11:24:06.708Z,15.90
2019-05-03T11:26:35.305Z,16.00
2019-05-03T11:29:05.177Z,16.10
2019-05-03T11:31:55.975Z,16.40
2019-05-03T11:34:27.185Z,17.30
2019-05-03T11:37:25.157Z,16.40
2019-05-03T11:39:53.234Z,16.00
2019-05-03T11:42:21.220Z,16.30
2019-05-03T11:44:49.333Z,17.90
2019-05-03T11:47:17.303Z,17.50
2019-05-03T11:49:45.597Z,17.00
2019-05-03T11:52:15.874Z,17.40
2019-05-03T11:54:45.273Z,16.80
2019-05-03T11:57:21.138Z,15.80
2019-05-03T11:59:49.179Z,16.10
2019-05-03T12:02:35.663Z,16.10
2019-05-03T12:05:05.906Z,17.10
2019-05-03T12:07:39.969Z,17.00
2019-05-03T12:10:15.028Z,17.00
2019-05-03T12:12:38.003Z,16.40
2019-05-03T12:15:06.055Z,16.60
2019-05-03T12:17:50.515Z,17.30
2019-05-03T12:20:09.004Z,18.20
2019-05-03T12:22:38.218Z,17.70
2019-05-03T12:25:10.487Z,17.50
2019-05-03T12:27:37.591Z,17.80
2019-05-03T12:30:06.178Z,17.90
2019-05-03T12:32:34.591Z,17.90
2019-05-03T12:35:02.853Z,17.90
2019-05-03T12:37:31.024Z,19.00
2019-05-03T12:39:58.979Z,18.40
2019-05-03T12:42:27.046Z,18.20
2019-05-03T12:44:55.525Z,19.50
2019-05-03T12:47:25.168Z,18.70
2019-05-03T12:49:55.740Z,18.70
2019-05-03T12:52:26.243Z,18.70
2019-05-03T12:54:55.080Z,18.20
2019-05-03T12:57:24.842Z,17.00
2019-05-03T12:59:59.371Z,17.00
2019-05-03T13:02:33.947Z,17.20
2019-05-03T13:05:02.291Z,18.40
2019-05-03T13:07:45.526Z,18.90
2019-05-03T13:10:21.604Z,18.20
2019-05-03T13:12:52.747Z,17.40
2019-05-03T13:15:16.611Z,17.20
2019-05-03T13:17:44.702Z,16.40
2019-05-03T13:20:14.351Z,16.40
2019-05-03T13:22:42.391Z,16.50
2019-05-03T13:25:10.776Z,17.20
2019-05-03T13:27:39.157Z,17.40
2019-05-03T13:30:10.089Z,18.30
2019-05-03T13:32:38.074Z,18.30
2019-05-03T13:35:06.359Z,18.60
2019-05-03T13:37:35.853Z,19.90
2019-05-03T13:40:05.376Z,19.10
2019-05-03T13:42:35.033Z,18.20
2019-05-03T13:45:04.845Z,18.70
2019-05-03T13:47:34.916Z,17.20
2019-05-03T13:50:03.979Z,18.30
2019-05-03T13:52:32.064Z,19.90
2019-05-03T13:55:00.019Z,20.70
2019-05-03T13:57:28.072Z,20.50
2019-05-03T13:59:56.247Z,19.60
2019-05-03T14:02:27.192Z,22.00
2019-05-03T14:04:55.715Z,20.60
2019-05-03T14:07:23.706Z,22.30
2019-05-03T14:09:51.629Z,22.60
2019-05-03T14:12:19.586Z,21.50
2019-05-03T14:14:55.889Z,22.20
2019-05-03T14:17:26.727Z,22.80
2019-05-03T14:20:10.409Z,22.60
2019-05-03T14:22:40.784Z,22.70
2019-05-03T14:25:08.852Z,21.50
2019-05-03T14:27:37.862Z,22.40
2019-05-03T14:30:06.018Z,22.10
2019-05-03T14:32:35.947Z,19.60
2019-05-03T14:35:04.502Z,19.00
2019-05-03T14:37:32.566Z,19.70
2019-05-03T14:40:00.614Z,19.20
2019-05-03T14:42:28.623Z,19.80
2019-05-03T14:44:56.585Z,20.60
2019-05-03T14:47:25.249Z,21.10
2019-05-03T14:49:54.603Z,22.00
2019-05-03T14:52:25.126Z,22.80
2019-05-03T14:54:55.821Z,23.80
2019-05-03T14:57:30.618Z,23.30
2019-05-03T15:00:18.207Z,22.40
2019-05-03T15:02:51.330Z,19.70
2019-05-03T15:05:21.403Z,21.10
2019-05-03T15:07:49.427Z,22.60
2019-05-03T15:10:17.735Z,19.70
2019-05-03T15:12:45.712Z,19.50
2019-05-03T15:15:14.756Z,19.00
2019-05-03T15:17:43.007Z,17.90
2019-05-03T15:20:10.977Z,18.60
2019-05-03T15:22:38.967Z,18.30
2019-05-03T15:25:07.266Z,18.00
2019-05-03T15:27:35.479Z,19.20
2019-05-03T15:30:04.900Z,21.50
2019-05-03T15:32:35.232Z,21.40
2019-05-03T15:35:04.807Z,19.80
2019-05-03T15:37:32.930Z,22.30
2019-05-03T15:40:00.903Z,20.90
2019-05-03T15:42:29.576Z,21.40
2019-05-03T15:45:11.660Z,19.70
2019-05-03T15:47:45.283Z,20.70
2019-05-03T15:50:15.434Z,20.40
2019-05-03T15:52:44.472Z,18.70
2019-05-03T15:55:12.760Z,17.80
2019-05-03T15:57:40.780Z,18.20
2019-05-03T16:00:10.936Z,17.70
2019-05-03T16:02:40.983Z,17.90
2019-05-03T16:05:08.965Z,17.10
2019-05-03T16:07:36.947Z,17.60
2019-05-03T16:10:05.161Z,17.00
2019-05-03T16:12:34.455Z,17.60
2019-05-03T16:15:04.536Z,16.60
2019-05-03T16:17:32.634Z,16.20
2019-05-03T16:20:00.845Z,16.50
2019-05-03T16:22:28.951Z,16.30
2019-05-03T16:24:57.129Z,16.10
2019-05-03T16:27:47.867Z,17.00
2019-05-03T16:30:41.592Z,17.60
2019-05-03T16:33:22.491Z,16.80
2019-05-03T16:35:39.502Z,17.30
2019-05-03T16:38:07.451Z,16.00
2019-05-03T16:40:35.553Z,16.70
2019-05-03T16:43:04.691Z,16.80
2019-05-03T16:45:34.912Z,15.90
2019-05-03T16:48:04.486Z,16.90
2019-05-03T16:50:34.533Z,17.30
2019-05-03T16:53:02.853Z,17.30
2019-05-03T16:55:30.986Z,16.70
2019-05-03T16:57:59.041Z,16.50
2019-05-03T17:00:26.970Z,15.80
2019-05-03T17:02:55.203Z,16.10
2019-05-03T17:05:42.850Z,16.10
2019-05-03T17:08:29.268Z,16.30
2019-05-03T17:10:59.048Z,16.90
2019-05-03T17:13:29.313Z,16.70
2019-05-03T17:15:57.416Z,17.20
2019-05-03T17:18:25.607Z,16.60
2019-05-03T17:20:54.771Z,16.70
2019-05-03T17:23:24.601Z,17.10
2019-05-03T17:25:53.380Z,16.20
2019-05-03T17:28:21.528Z,15.80
2019-05-03T17:30:49.717Z,15.90
2019-05-03T17:33:17.819Z,15.50
2019-05-03T17:35:48.940Z,16.30
2019-05-03T17:38:17.998Z,16.20
2019-05-03T17:40:57.813Z,15.80
2019-05-03T17:43:34.515Z,15.30
2019-05-03T17:46:04.365Z,15.10
2019-05-03T17:48:36.756Z,15.30
2019-05-03T17:51:10.363Z,15.50
2019-05-03T17:53:47.056Z,15.70
2019-05-03T17:56:35.150Z,15.50
2019-05-03T17:59:25.810Z,15.10
2019-05-03T18:02:11.795Z,15.30
2019-05-03T18:05:00.539Z,15.30
2019-05-03T18:07:39.976Z,14.40
2019-05-03T18:10:09.036Z,15.50
2019-05-03T18:12:37.429Z,15.60
2019-05-03T18:15:05.808Z,15.50
2019-05-03T18:17:35.252Z,15.40
2019-05-03T18:20:04.548Z,15.50
2019-05-03T18:22:32.598Z,14.90
2019-05-03T18:25:00.779Z,15.10
2019-05-03T18:27:29.561Z,15.40
2019-05-03T18:29:58.109Z,15.30
2019-05-03T18:32:26.207Z,14.70
2019-05-03T18:34:54.710Z,14.90
2019-05-03T18:37:24.484Z,15.10
2019-05-03T18:39:54.646Z,14.70
2019-05-03T18:42:32.045Z,14.80
2019-05-03T18:45:04.678Z,14.70
2019-05-03T18:47:34.399Z,15.00
2019-05-03T18:50:04.352Z,15.20
2019-05-03T18:52:34.357Z,14.60
2019-05-03T18:55:04.422Z,14.10
2019-05-03T18:57:32.668Z,14.10
2019-05-03T19:00:00.702Z,14.40
2019-05-03T19:02:28.776Z,14.30
2019-05-03T19:04:56.995Z,14.20
2019-05-03T19:07:45.295Z,14.30
2019-05-03T19:10:38.519Z,14.40
2019-05-03T19:13:16.800Z,13.80
2019-05-03T19:15:44.948Z,14.40
2019-05-03T19:18:35.270Z,14.20
2019-05-03T19:21:07.558Z,14.40
2019-05-03T19:23:35.667Z,14.50
2019-05-03T19:26:05.576Z,14.30
2019-05-03T19:28:35.413Z,14.60
2019-05-03T19:31:05.481Z,14.30
2019-05-03T19:33:34.770Z,14.40
2019-05-03T19:36:04.513Z,14.10
2019-05-03T19:38:34.974Z,14.40
2019-05-03T19:41:03.031Z,14.50
2019-05-03T19:43:31.329Z,14.30
2019-05-03T19:45:59.628Z,14.40
2019-05-03T19:48:27.798Z,14.40
2019-05-03T19:50:55.973Z,14.40
2019-05-03T19:53:49.632Z,14.10
2019-05-03T19:56:19.276Z,14.10
2019-05-03T19:58:47.427Z,14.10
2019-05-03T20:01:41.296Z,14.10
2019-05-03T20:04:35.512Z,13.70
2019-05-03T20:07:20.688Z,14.30
2019-05-03T20:09:49.060Z,14.40
2019-05-03T20:12:17.375Z,13.90
2019-05-03T20:14:45.610Z,14.20
2019-05-03T20:17:14.832Z,14.40
2019-05-03T20:19:45.059Z,14.20
2019-05-03T20:22:15.160Z,14.40
2019-05-03T20:24:44.773Z,14.10
2019-05-03T20:27:12.881Z,14.00
2019-05-03T20:29:43.533Z,14.20
2019-05-03T20:32:11.359Z,14.10
2019-05-03T20:34:39.482Z,13.80
2019-05-03T20:37:07.657Z,13.90
2019-05-03T20:39:35.928Z,14.10
2019-05-03T20:42:04.530Z,14.00
2019-05-03T20:44:39.769Z,13.70
2019-05-03T20:47:40.006Z,13.90
2019-05-03T20:50:15.636Z,14.00
2019-05-03T20:52:45.379Z,13.90
2019-05-03T20:55:15.551Z,14.30
2019-05-03T20:57:44.407Z,14.30
2019-05-03T21:00:15.395Z,13.50
2019-05-03T21:02:53.432Z,13.80
2019-05-03T21:05:27.166Z,13.30
2019-05-03T21:07:46.509Z,13.40
2019-05-03T21:10:15.658Z,13.60
2019-05-03T21:12:43.981Z,13.70
2019-05-03T21:15:27.474Z,13.70
2019-05-03T21:18:15.212Z,13.20
2019-05-03T21:20:50.922Z,13.00
2019-05-03T21:23:20.499Z,13.50
2019-05-03T21:26:13.205Z,13.50
2019-05-03T21:28:37.550Z,13.20
2019-05-03T21:31:06.099Z,13.40
2019-05-03T21:33:35.488Z,13.60
2019-05-03T21:36:04.674Z,13.70
2019-05-03T21:38:32.804Z,13.60
2019-05-03T21:41:01.144Z,13.40
2019-05-03T21:43:29.226Z,12.50
2019-05-03T21:46:19.856Z,13.20
2019-05-03T21:48:55.397Z,13.30
2019-05-03T21:51:24.523Z,13.10
2019-05-03T21:53:52.768Z,13.20
2019-05-03T21:56:20.847Z,13.10
2019-05-03T21:58:48.855Z,12.80
2019-05-03T22:01:17.393Z,13.00
2019-05-03T22:03:45.598Z,13.10
2019-05-03T22:06:15.433Z,13.40
2019-05-03T22:08:45.533Z,13.00
2019-05-03T22:11:14.839Z,12.90
2019-05-03T22:13:45.465Z,13.40
2019-05-03T22:16:20.580Z,12.60
2019-05-03T22:18:48.940Z,13.10
2019-05-03T22:21:26.885Z,13.30
2019-05-03T22:24:17.538Z,13.30
2019-05-03T22:26:54.963Z,13.20
2019-05-03T22:29:25.210Z,13.20
2019-05-03T22:31:54.697Z,13.40
2019-05-03T22:34:23.043Z,13.00
2019-05-03T22:36:51.087Z,13.50
2019-05-03T22:39:19.034Z,13.40
2019-05-03T22:41:47.122Z,13.10
2019-05-03T22:44:17.100Z,12.90
2019-05-03T22:46:45.118Z,12.80
2019-05-03T22:49:15.444Z,13.00
2019-05-03T22:51:44.996Z,12.90
2019-05-03T22:54:15.189Z,13.10
2019-05-03T22:56:44.596Z,13.10
2019-05-03T22:59:14.747Z,13.00
2019-05-03T23:01:42.959Z,12.60
2019-05-03T23:04:11.028Z,12.60
2019-05-03T23:06:39.025Z,12.50
2019-05-03T23:09:07.119Z,12.80
2019-05-03T23:11:35.412Z,12.80
2019-05-03T23:14:05.029Z,13.10
2019-05-03T23:16:35.652Z,13.10
2019-05-03T23:19:05.537Z,13.10
2019-05-03T23:21:56.469Z,12.70
2019-05-03T23:24:24.787Z,12.70
2019-05-03T23:26:53.171Z,12.90
2019-05-03T23:29:23.022Z,13.30
2019-05-03T23:31:51.050Z,13.50
2019-05-03T23:34:18.978Z,13.10
2019-05-03T23:36:46.964Z,13.20
2019-05-03T23:39:15.006Z,13.00
2019-05-03T23:41:42.982Z,12.80
2019-05-03T23:44:10.979Z,13.00
2019-05-03T23:46:45.471Z,13.30
2019-05-03T23:49:14.507Z,13.10
2019-05-03T23:51:49.443Z,13.30
2019-05-03T23:54:20.301Z,13.20
2019-05-03T23:56:49.692Z,13.20
2019-05-03T23:59:17.694Z,13.30
